createdAt,value
2018-05-04T00:00:58.438Z,20.14
2018-05-04T00:03:24.593Z,20.12
2018-05-04T00:05:50.733Z,20.09
2018-05-04T00:08:17.178Z,20.07
2018-05-04T00:10:43.368Z,20.05
2018-05-04T00:13:09.509Z,20.04
2018-05-04T00:15:35.689Z,20.03
2018-05-04T00:18:01.937Z,20.01
2018-05-04T00:20:28.085Z,19.96
2018-05-04T00:22:54.259Z,19.96
2018-05-04T00:25:20.408Z,19.94
2018-05-04T00:27:46.931Z,19.90
2018-05-04T00:30:13.333Z,19.87
2018-05-04T00:32:39.491Z,19.86
2018-05-04T00:35:05.666Z,19.82
2018-05-04T00:37:32.124Z,19.83
2018-05-04T00:39:58.697Z,19.84
2018-05-04T00:42:24.868Z,19.81
2018-05-04T00:44:51.020Z,19.80
2018-05-04T00:47:17.224Z,19.77
2018-05-04T00:49:43.365Z,19.73
2018-05-04T00:52:09.507Z,19.72
2018-05-04T00:54:36.061Z,19.69
2018-05-04T00:57:02.216Z,19.68
2018-05-04T00:59:28.364Z,19.69
2018-05-04T01:01:54.814Z,19.67
2018-05-04T01:04:20.974Z,19.64
2018-05-04T01:06:47.146Z,19.61
2018-05-04T01:09:13.290Z,19.62
2018-05-04T01:11:39.483Z,19.66
2018-05-04T01:14:05.954Z,19.68
2018-05-04T01:16:32.100Z,19.67
2018-05-04T01:18:58.265Z,19.66
2018-05-04T01:21:24.744Z,19.65
2018-05-04T01:23:50.908Z,19.64
2018-05-04T01:26:17.080Z,19.62
2018-05-04T01:28:43.235Z,19.61
2018-05-04T01:31:09.453Z,19.60
2018-05-04T01:33:35.592Z,19.58
2018-05-04T01:36:01.726Z,19.56
2018-05-04T01:38:27.925Z,19.55
2018-05-04T01:40:54.075Z,19.52
2018-05-04T01:43:20.243Z,19.50
2018-05-04T01:45:46.513Z,19.49
2018-05-04T01:48:12.667Z,19.47
2018-05-04T01:50:39.201Z,19.47
2018-05-04T01:53:05.361Z,19.46
2018-05-04T01:55:31.496Z,19.45
2018-05-04T01:57:57.692Z,19.41
2018-05-04T02:00:24.085Z,19.41
2018-05-04T02:02:50.225Z,19.39
2018-05-04T02:05:16.461Z,19.35
2018-05-04T02:07:42.643Z,19.34
2018-05-04T02:10:09.201Z,19.31
2018-05-04T02:12:35.362Z,19.33
2018-05-04T02:15:01.503Z,19.33
2018-05-04T02:17:27.655Z,19.32
2018-05-04T02:19:53.806Z,19.31
2018-05-04T02:22:20.010Z,19.30
2018-05-04T02:24:46.146Z,19.29
2018-05-04T02:27:12.289Z,19.29
2018-05-04T02:29:38.461Z,19.27
2018-05-04T02:32:04.656Z,19.28
2018-05-04T02:34:31.083Z,19.28
2018-05-04T02:36:57.220Z,19.25
2018-05-04T02:39:23.419Z,19.21
2018-05-04T02:41:49.965Z,19.19
2018-05-04T02:44:16.133Z,19.17
2018-05-04T02:46:42.287Z,19.16
2018-05-04T02:49:08.563Z,19.15
2018-05-04T02:51:34.710Z,19.14
2018-05-04T02:54:00.859Z,19.14
2018-05-04T02:56:27.037Z,19.12
2018-05-04T02:58:53.178Z,19.11
2018-05-04T03:01:19.383Z,19.09
2018-05-04T03:03:45.517Z,19.08
2018-05-04T03:06:11.805Z,19.06
2018-05-04T03:08:37.957Z,19.02
2018-05-04T03:11:04.110Z,19.01
2018-05-04T03:13:30.521Z,19.01
2018-05-04T03:15:56.669Z,19.01
2018-05-04T03:18:22.872Z,18.99
2018-05-04T03:20:49.303Z,18.98
2018-05-04T03:23:15.437Z,18.99
2018-05-04T03:25:41.865Z,18.96
2018-05-04T03:28:07.997Z,18.95
2018-05-04T03:30:34.163Z,18.91
2018-05-04T03:33:00.648Z,18.90
2018-05-04T03:35:26.804Z,18.88
2018-05-04T03:37:53.004Z,18.90
2018-05-04T03:40:19.443Z,18.89
2018-05-04T03:42:45.623Z,18.88
2018-05-04T03:45:11.769Z,18.87
2018-05-04T03:47:38.226Z,18.84
2018-05-04T03:50:04.361Z,18.80
2018-05-04T03:52:30.536Z,18.76
2018-05-04T03:54:56.667Z,18.76
2018-05-04T03:57:35.434Z,18.80
2018-05-04T04:00:13.702Z,18.84
2018-05-04T04:02:52.118Z,18.87
2018-05-04T04:05:18.267Z,18.89
2018-05-04T04:07:44.454Z,18.88
2018-05-04T04:10:10.716Z,18.88
2018-05-04T04:12:36.955Z,18.88
2018-05-04T04:15:03.136Z,18.87
2018-05-04T04:17:29.597Z,18.86
2018-05-04T04:19:55.826Z,18.86
2018-05-04T04:22:21.999Z,18.87
2018-05-04T04:24:48.414Z,18.86
2018-05-04T04:27:16.916Z,18.86
2018-05-04T04:29:43.082Z,18.89
2018-05-04T04:32:09.221Z,18.95
2018-05-04T04:34:35.410Z,18.87
2018-05-04T04:37:01.550Z,18.79
2018-05-04T04:39:27.719Z,18.72
2018-05-04T04:41:53.852Z,18.68
2018-05-04T04:44:20.014Z,18.64
2018-05-04T04:46:46.206Z,18.64
2018-05-04T04:49:12.361Z,18.65
2018-05-04T04:51:38.519Z,18.72
2018-05-04T04:54:05.015Z,18.70
2018-05-04T04:56:31.306Z,18.69
2018-05-04T04:58:57.963Z,18.65
2018-05-04T05:01:24.121Z,18.61
2018-05-04T05:03:51.035Z,18.61
2018-05-04T05:06:17.429Z,18.59
2018-05-04T05:08:43.573Z,18.58
2018-05-04T05:11:10.165Z,18.64
2018-05-04T05:13:36.314Z,18.66
2018-05-04T05:16:02.462Z,18.76
2018-05-04T05:18:28.917Z,18.88
2018-05-04T05:20:55.088Z,18.93
2018-05-04T05:23:21.254Z,18.80
2018-05-04T05:25:47.486Z,18.85
2018-05-04T05:28:13.714Z,18.86
2018-05-04T05:30:39.882Z,18.86
2018-05-04T05:33:06.280Z,18.86
2018-05-04T05:35:32.513Z,18.81
2018-05-04T05:37:58.654Z,18.78
2018-05-04T05:40:24.820Z,18.73
2018-05-04T05:42:51.293Z,18.71
2018-05-04T05:45:17.632Z,18.75
2018-05-04T05:47:43.858Z,18.82
2018-05-04T05:50:10.104Z,18.87
2018-05-04T05:52:36.297Z,18.93
2018-05-04T05:55:02.462Z,18.95
2018-05-04T05:57:28.638Z,18.99
2018-05-04T05:59:54.819Z,19.01
2018-05-04T06:02:20.965Z,19.09
2018-05-04T06:04:47.256Z,19.15
2018-05-04T06:07:13.678Z,19.19
2018-05-04T06:09:39.821Z,19.18
2018-05-04T06:12:06.039Z,19.19
2018-05-04T06:14:32.464Z,19.26
2018-05-04T06:16:58.757Z,19.27
2018-05-04T06:19:24.921Z,19.31
2018-05-04T06:21:51.221Z,19.36
2018-05-04T06:24:17.509Z,19.40
2018-05-04T06:26:43.657Z,19.45
2018-05-04T06:29:10.246Z,19.48
2018-05-04T06:31:36.449Z,19.53
2018-05-04T06:34:02.603Z,19.54
2018-05-04T06:36:28.869Z,19.55
2018-05-04T06:38:55.294Z,19.60
2018-05-04T06:41:21.695Z,19.63
2018-05-04T06:43:48.434Z,19.67
2018-05-04T06:46:14.709Z,19.72
2018-05-04T06:48:40.967Z,19.77
2018-05-04T06:51:07.073Z,19.80
2018-05-04T06:53:33.404Z,19.82
2018-05-04T06:55:59.567Z,19.86
2018-05-04T06:58:25.730Z,19.92
2018-05-04T07:00:51.948Z,19.93
2018-05-04T07:03:18.122Z,19.95
2018-05-04T07:05:44.283Z,19.96
2018-05-04T07:08:10.474Z,20.00
2018-05-04T07:10:36.621Z,20.01
2018-05-04T07:13:02.911Z,20.04
2018-05-04T07:15:29.396Z,20.05
2018-05-04T07:17:55.542Z,20.10
2018-05-04T07:20:21.748Z,20.06
2018-05-04T07:22:48.320Z,20.10
2018-05-04T07:25:14.524Z,20.11
2018-05-04T07:27:40.687Z,20.10
2018-05-04T07:30:06.953Z,20.12
2018-05-04T07:32:33.097Z,20.13
2018-05-04T07:34:59.254Z,20.12
2018-05-04T07:37:25.433Z,20.10
2018-05-04T07:39:51.600Z,20.10
2018-05-04T07:42:17.814Z,20.10
2018-05-04T07:44:43.989Z,20.07
2018-05-04T07:47:10.164Z,20.11
2018-05-04T07:49:36.465Z,20.12
2018-05-04T07:52:02.645Z,20.13
2018-05-04T07:54:28.876Z,20.07
2018-05-04T07:56:55.028Z,20.04
2018-05-04T07:59:21.478Z,20.02
2018-05-04T08:01:47.647Z,19.98
2018-05-04T08:04:13.819Z,20.00
2018-05-04T08:06:40.289Z,20.01
2018-05-04T08:09:06.481Z,20.01
2018-05-04T08:11:32.984Z,20.00
2018-05-04T08:13:59.145Z,20.01
2018-05-04T08:16:25.292Z,20.05
2018-05-04T08:18:51.600Z,20.07
2018-05-04T08:21:17.765Z,20.06
2018-05-04T08:23:44.196Z,20.04
2018-05-04T08:26:10.377Z,20.06
2018-05-04T08:28:36.545Z,20.05
2018-05-04T08:31:02.770Z,20.05
2018-05-04T08:33:28.985Z,20.05
2018-05-04T08:35:55.183Z,20.04
2018-05-04T08:38:21.391Z,20.08
2018-05-04T08:40:47.676Z,20.11
2018-05-04T08:43:13.828Z,20.12
2018-05-04T08:45:39.989Z,20.12
2018-05-04T08:48:06.152Z,20.14
2018-05-04T08:50:32.448Z,20.13
2018-05-04T08:52:58.613Z,20.13
2018-05-04T08:55:25.018Z,20.12
2018-05-04T08:57:51.214Z,20.13
2018-05-04T09:00:17.426Z,20.14
2018-05-04T09:02:43.583Z,20.15
2018-05-04T09:05:09.858Z,20.14
2018-05-04T09:07:35.954Z,20.16
2018-05-04T09:10:02.115Z,20.16
2018-05-04T09:12:28.343Z,20.17
2018-05-04T09:14:54.485Z,20.18
2018-05-04T09:17:20.666Z,20.19
2018-05-04T09:19:46.883Z,20.20
2018-05-04T09:22:13.066Z,20.21
2018-05-04T09:24:39.255Z,20.21
2018-05-04T09:27:05.662Z,20.23
2018-05-04T09:29:31.826Z,20.26
2018-05-04T09:31:58.330Z,20.30
2018-05-04T09:34:24.516Z,20.32
2018-05-04T09:36:50.673Z,20.35
2018-05-04T09:39:16.873Z,20.35
2018-05-04T09:41:43.040Z,20.36
2018-05-04T09:44:09.250Z,20.36
2018-05-04T09:46:35.432Z,20.36
2018-05-04T09:49:01.923Z,20.38
2018-05-04T09:51:28.104Z,20.39
2018-05-04T09:53:54.257Z,20.39
2018-05-04T09:56:20.458Z,20.41
2018-05-04T09:58:46.997Z,20.42
2018-05-04T10:01:13.140Z,20.44
2018-05-04T10:03:39.339Z,20.49
2018-05-04T10:06:05.546Z,20.51
2018-05-04T10:08:31.736Z,20.55
2018-05-04T10:10:57.912Z,20.58
2018-05-04T10:13:24.073Z,20.58
2018-05-04T10:15:50.282Z,20.57
2018-05-04T10:18:16.456Z,20.58
2018-05-04T10:20:42.628Z,20.60
2018-05-04T10:23:09.075Z,20.62
2018-05-04T10:25:35.264Z,20.67
2018-05-04T10:28:01.425Z,20.69
2018-05-04T10:30:27.589Z,20.70
2018-05-04T10:32:53.945Z,20.72
2018-05-04T10:35:20.123Z,20.78
2018-05-04T10:37:46.313Z,20.80
2018-05-04T10:40:12.577Z,20.80
2018-05-04T10:42:38.726Z,20.82
2018-05-04T10:45:04.899Z,20.87
2018-05-04T10:47:31.248Z,20.91
2018-05-04T10:49:57.444Z,20.93
2018-05-04T10:52:23.645Z,20.95
2018-05-04T10:54:49.849Z,20.98
2018-05-04T10:57:16.082Z,21.01
2018-05-04T10:59:42.290Z,21.02
2018-05-04T11:02:08.955Z,21.04
2018-05-04T11:04:35.117Z,21.06
2018-05-04T11:07:01.509Z,21.07
2018-05-04T11:09:27.746Z,21.08
2018-05-04T11:11:53.919Z,21.11
2018-05-04T11:14:20.124Z,21.13
2018-05-04T11:16:46.317Z,21.16
2018-05-04T11:19:12.824Z,21.18
2018-05-04T11:21:39.044Z,21.22
2018-05-04T11:24:05.485Z,21.25
2018-05-04T11:26:31.670Z,21.29
2018-05-04T11:28:57.812Z,21.31
2018-05-04T11:31:23.999Z,21.34
2018-05-04T11:33:50.193Z,21.36
2018-05-04T11:36:16.504Z,21.39
2018-05-04T11:38:42.762Z,21.42
2018-05-04T11:41:08.931Z,21.44
2018-05-04T11:43:35.145Z,21.46
2018-05-04T11:46:01.327Z,21.48
2018-05-04T11:48:27.482Z,21.51
2018-05-04T11:50:53.903Z,21.54
2018-05-04T11:53:20.062Z,21.57
2018-05-04T11:55:46.253Z,21.60
2018-05-04T11:58:12.407Z,21.63
2018-05-04T12:00:38.545Z,21.66
2018-05-04T12:03:04.708Z,21.69
2018-05-04T12:05:30.846Z,21.73
2018-05-04T12:07:57.050Z,21.77
2018-05-04T12:10:23.251Z,21.79
2018-05-04T12:12:49.950Z,21.84
2018-05-04T12:15:16.376Z,21.85
2018-05-04T12:17:42.544Z,21.88
2018-05-04T12:20:08.724Z,21.92
2018-05-04T12:22:35.113Z,21.95
2018-05-04T12:25:01.274Z,22.02
2018-05-04T12:27:27.725Z,22.06
2018-05-04T12:29:53.913Z,22.09
2018-05-04T12:32:20.177Z,22.11
2018-05-04T12:34:46.305Z,22.14
2018-05-04T12:37:12.555Z,22.15
2018-05-04T12:39:38.649Z,22.15
2018-05-04T12:42:04.822Z,22.15
2018-05-04T12:44:31.064Z,22.10
2018-05-04T12:46:57.222Z,22.05
2018-05-04T12:49:23.413Z,21.98
2018-05-04T12:51:49.590Z,21.95
2018-05-04T12:54:15.723Z,21.96
2018-05-04T12:56:42.028Z,21.99
2018-05-04T12:59:08.198Z,22.02
2018-05-04T13:01:34.354Z,22.07
2018-05-04T13:04:00.536Z,22.11
2018-05-04T13:06:26.774Z,22.16
2018-05-04T13:08:52.933Z,22.21
2018-05-04T13:11:19.069Z,22.24
2018-05-04T13:13:45.648Z,22.26
2018-05-04T13:16:12.217Z,22.30
2018-05-04T13:18:38.354Z,22.33
2018-05-04T13:21:04.489Z,22.35
2018-05-04T13:23:30.703Z,22.36
2018-05-04T13:25:56.823Z,22.38
2018-05-04T13:28:22.958Z,22.40
2018-05-04T13:30:49.150Z,22.43
2018-05-04T13:33:15.293Z,22.47
2018-05-04T13:35:41.705Z,22.49
2018-05-04T13:38:07.917Z,22.51
2018-05-04T13:40:34.464Z,22.55
2018-05-04T13:43:00.653Z,22.58
2018-05-04T13:45:27.042Z,22.60
2018-05-04T13:47:53.208Z,22.63
2018-05-04T13:50:19.336Z,22.65
2018-05-04T13:52:45.808Z,22.68
2018-05-04T13:55:11.964Z,22.70
2018-05-04T13:57:38.121Z,22.68
2018-05-04T14:00:04.257Z,22.75
2018-05-04T14:02:30.476Z,22.78
2018-05-04T14:04:56.649Z,22.81
2018-05-04T14:07:22.816Z,22.84
2018-05-04T14:09:49.310Z,22.88
2018-05-04T14:12:15.745Z,22.94
2018-05-04T14:14:41.917Z,23.00
2018-05-04T14:17:08.035Z,23.09
2018-05-04T14:19:34.566Z,23.19
2018-05-04T14:22:00.701Z,23.28
2018-05-04T14:24:26.848Z,23.39
2018-05-04T14:26:53.008Z,23.54
2018-05-04T14:29:19.192Z,23.83
2018-05-04T14:31:45.350Z,24.57
2018-05-04T14:34:11.491Z,26.17
2018-05-04T14:36:37.769Z,27.82
2018-05-04T14:39:04.016Z,28.75
2018-05-04T14:41:30.151Z,29.26
2018-05-04T14:43:56.427Z,29.55
2018-05-04T14:46:22.835Z,29.77
2018-05-04T14:48:48.972Z,29.94
2018-05-04T14:51:15.142Z,30.08
2018-05-04T14:53:41.305Z,30.18
2018-05-04T14:56:07.487Z,30.23
2018-05-04T14:58:33.755Z,30.15
2018-05-04T15:00:59.833Z,29.97
2018-05-04T15:03:26.364Z,29.67
2018-05-04T15:05:52.495Z,29.42
2018-05-04T15:08:18.621Z,28.35
2018-05-04T15:10:45.248Z,27.31
2018-05-04T15:13:11.654Z,26.96
2018-05-04T15:15:38.081Z,27.14
2018-05-04T15:18:04.295Z,27.54
2018-05-04T15:20:30.705Z,27.17
2018-05-04T15:22:56.870Z,26.22
2018-05-04T15:25:23.158Z,26.00
2018-05-04T15:27:49.306Z,26.26
2018-05-04T15:30:15.447Z,26.84
2018-05-04T15:32:41.630Z,27.96
2018-05-04T15:35:07.764Z,27.79
2018-05-04T15:37:34.261Z,26.81
2018-05-04T15:40:00.475Z,26.19
2018-05-04T15:42:26.563Z,25.78
2018-05-04T15:44:52.741Z,25.47
2018-05-04T15:47:18.872Z,25.20
2018-05-04T15:49:45.272Z,24.98
2018-05-04T15:52:11.400Z,24.96
2018-05-04T15:54:37.842Z,24.82
2018-05-04T15:57:04.022Z,24.77
2018-05-04T15:59:30.230Z,24.81
2018-05-04T16:01:56.371Z,24.54
2018-05-04T16:04:22.545Z,24.36
2018-05-04T16:06:48.722Z,24.34
2018-05-04T16:09:15.203Z,24.25
2018-05-04T16:11:41.374Z,24.32
2018-05-04T16:14:07.502Z,24.60
2018-05-04T16:16:40.782Z,24.91
2018-05-04T16:19:07.141Z,25.11
2018-05-04T16:21:33.282Z,24.83
2018-05-04T16:23:59.432Z,24.46
2018-05-04T16:26:25.580Z,24.27
2018-05-04T16:28:51.848Z,24.31
2018-05-04T16:31:17.949Z,24.25
2018-05-04T16:33:44.105Z,24.14
2018-05-04T16:36:10.322Z,24.08
2018-05-04T16:38:36.438Z,24.02
2018-05-04T16:41:03.237Z,23.97
2018-05-04T16:43:29.371Z,23.99
2018-05-04T16:45:55.544Z,24.05
2018-05-04T16:48:27.718Z,24.04
2018-05-04T16:50:53.848Z,23.97
2018-05-04T16:53:20.052Z,24.05
2018-05-04T16:55:46.235Z,24.11
2018-05-04T16:58:12.669Z,24.12
2018-05-04T17:00:38.869Z,24.09
2018-05-04T17:03:05.079Z,24.13
2018-05-04T17:05:31.252Z,24.24
2018-05-04T17:07:57.444Z,24.31
2018-05-04T17:10:23.578Z,24.40
2018-05-04T17:12:49.797Z,24.49
2018-05-04T17:15:15.970Z,24.56
2018-05-04T17:17:42.180Z,24.65
2018-05-04T17:20:08.388Z,24.72
2018-05-04T17:22:34.550Z,24.76
2018-05-04T17:25:00.702Z,24.78
2018-05-04T17:27:26.928Z,24.81
2018-05-04T17:29:53.110Z,24.83
2018-05-04T17:32:19.551Z,24.84
2018-05-04T17:34:45.718Z,24.84
2018-05-04T17:37:11.892Z,24.84
2018-05-04T17:39:38.040Z,24.83
2018-05-04T17:42:04.159Z,24.81
2018-05-04T17:44:30.361Z,24.79
2018-05-04T17:46:56.828Z,24.77
2018-05-04T17:49:22.969Z,24.75
2018-05-04T17:51:49.138Z,24.72
2018-05-04T17:54:15.611Z,24.68
2018-05-04T17:56:41.779Z,24.65
2018-05-04T17:59:08.171Z,24.62
2018-05-04T18:01:34.333Z,24.59
2018-05-04T18:04:00.461Z,24.54
2018-05-04T18:06:26.658Z,24.50
2018-05-04T18:08:52.784Z,24.45
2018-05-04T18:11:18.919Z,24.40
2018-05-04T18:13:45.232Z,24.32
2018-05-04T18:16:11.375Z,24.26
2018-05-04T18:18:37.505Z,24.21
2018-05-04T18:21:03.719Z,24.14
2018-05-04T18:23:29.859Z,24.07
2018-05-04T18:25:55.989Z,24.00
2018-05-04T18:28:22.161Z,23.92
2018-05-04T18:30:48.301Z,23.85
2018-05-04T18:33:14.591Z,23.75
2018-05-04T18:35:40.728Z,23.64
2018-05-04T18:38:06.861Z,23.54
2018-05-04T18:40:33.037Z,23.45
2018-05-04T18:42:59.329Z,23.38
2018-05-04T18:45:25.457Z,23.31
2018-05-04T18:47:51.626Z,23.26
2018-05-04T18:50:17.817Z,23.21
2018-05-04T18:52:43.981Z,23.15
2018-05-04T18:55:10.113Z,23.12
2018-05-04T18:57:36.294Z,23.07
2018-05-04T19:00:02.493Z,23.03
2018-05-04T19:02:34.778Z,22.99
2018-05-04T19:05:00.943Z,22.92
2018-05-04T19:07:27.073Z,22.87
2018-05-04T19:09:53.353Z,22.81
2018-05-04T19:12:19.486Z,22.76
2018-05-04T19:14:45.618Z,22.70
2018-05-04T19:17:11.773Z,22.64
2018-05-04T19:19:37.934Z,22.58
2018-05-04T19:22:04.089Z,22.53
2018-05-04T19:24:30.352Z,22.47
2018-05-04T19:26:56.494Z,22.42
2018-05-04T19:29:22.931Z,22.38
2018-05-04T19:31:49.105Z,22.34
2018-05-04T19:34:15.266Z,22.30
2018-05-04T19:36:41.431Z,22.18
2018-05-04T19:39:07.576Z,22.22
2018-05-04T19:41:33.820Z,22.18
2018-05-04T19:44:00.020Z,22.15
2018-05-04T19:46:26.510Z,22.12
2018-05-04T19:48:52.632Z,22.10
2018-05-04T19:51:18.765Z,22.06
2018-05-04T19:53:44.926Z,22.03
2018-05-04T19:56:11.066Z,22.02
2018-05-04T19:58:37.552Z,22.01
2018-05-04T20:01:03.691Z,21.99
2018-05-04T20:03:29.834Z,21.97
2018-05-04T20:05:55.992Z,21.95
2018-05-04T20:08:22.130Z,21.91
2018-05-04T20:10:48.409Z,21.88
2018-05-04T20:13:14.559Z,21.85
2018-05-04T20:15:40.693Z,21.83
2018-05-04T20:18:06.919Z,21.78
2018-05-04T20:20:33.071Z,21.75
2018-05-04T20:22:59.253Z,21.73
2018-05-04T20:25:25.394Z,21.71
2018-05-04T20:27:51.520Z,21.70
2018-05-04T20:30:17.685Z,21.68
2018-05-04T20:32:43.849Z,21.66
2018-05-04T20:35:10.029Z,21.66
2018-05-04T20:37:36.191Z,21.68
2018-05-04T20:40:02.710Z,21.66
2018-05-04T20:42:28.908Z,21.63
2018-05-04T20:44:55.214Z,21.61
2018-05-04T20:47:21.361Z,21.60
2018-05-04T20:49:47.488Z,21.58
2018-05-04T20:52:13.761Z,21.57
2018-05-04T20:54:39.911Z,21.56
2018-05-04T20:57:06.048Z,21.54
2018-05-04T20:59:32.274Z,21.54
2018-05-04T21:01:58.721Z,21.53
2018-05-04T21:04:24.910Z,21.52
2018-05-04T21:06:51.217Z,21.50
2018-05-04T21:09:17.404Z,21.47
2018-05-04T21:11:43.876Z,21.46
2018-05-04T21:14:10.075Z,21.47
2018-05-04T21:16:36.229Z,21.45
2018-05-04T21:19:02.407Z,21.45
2018-05-04T21:21:28.548Z,21.49
2018-05-04T21:23:54.735Z,21.50
2018-05-04T21:26:20.872Z,21.50
2018-05-04T21:28:47.094Z,21.47
2018-05-04T21:31:13.249Z,21.45
2018-05-04T21:33:39.534Z,21.43
2018-05-04T21:36:05.676Z,21.42
2018-05-04T21:38:31.908Z,21.42
2018-05-04T21:40:58.032Z,21.41
2018-05-04T21:43:24.174Z,21.42
2018-05-04T21:45:50.382Z,21.42
2018-05-04T21:48:16.530Z,21.40
2018-05-04T21:50:42.718Z,21.37
2018-05-04T21:53:08.908Z,21.39
2018-05-04T21:55:35.114Z,21.39
2018-05-04T21:58:01.403Z,21.39
2018-05-04T22:00:27.548Z,21.36
2018-05-04T22:02:53.693Z,21.35
2018-05-04T22:05:19.894Z,21.32
2018-05-04T22:07:46.037Z,21.29
2018-05-04T22:10:12.198Z,21.28
2018-05-04T22:12:38.363Z,21.27
2018-05-04T22:15:04.562Z,21.27
2018-05-04T22:17:30.759Z,21.26
2018-05-04T22:19:56.955Z,21.23
2018-05-04T22:22:23.110Z,21.20
2018-05-04T22:24:49.256Z,21.15
2018-05-04T22:27:15.530Z,21.14
2018-05-04T22:29:41.676Z,21.13
2018-05-04T22:32:07.880Z,21.11
2018-05-04T22:34:34.299Z,21.14
2018-05-04T22:37:00.445Z,21.14
2018-05-04T22:39:27.069Z,21.12
2018-05-04T22:41:53.210Z,21.10
2018-05-04T22:44:19.364Z,21.08
2018-05-04T22:46:45.545Z,21.10
2018-05-04T22:49:11.688Z,21.09
2018-05-04T22:51:37.957Z,21.07
2018-05-04T22:54:04.145Z,21.03
2018-05-04T22:56:30.341Z,21.03
2018-05-04T22:58:56.486Z,21.03
2018-05-04T23:01:22.633Z,21.03
2018-05-04T23:03:48.814Z,21.02
2018-05-04T23:06:15.274Z,20.98
2018-05-04T23:08:41.908Z,20.96
2018-05-04T23:11:08.062Z,20.94
2018-05-04T23:13:34.214Z,20.90
2018-05-04T23:16:00.380Z,20.90
2018-05-04T23:18:26.581Z,20.95
2018-05-04T23:20:52.719Z,20.98
2018-05-04T23:23:18.869Z,20.99
2018-05-04T23:25:45.081Z,20.98
2018-05-04T23:28:11.221Z,21.01
2018-05-04T23:30:37.393Z,20.98
2018-05-04T23:33:03.988Z,20.95
2018-05-04T23:35:30.177Z,20.95
2018-05-04T23:37:56.648Z,20.96
2018-05-04T23:40:23.076Z,20.96
2018-05-04T23:42:49.224Z,20.93
2018-05-04T23:45:15.394Z,20.94
2018-05-04T23:47:41.805Z,20.92
2018-05-04T23:50:07.958Z,20.93
2018-05-04T23:52:34.130Z,20.93
2018-05-04T23:55:00.413Z,20.91
2018-05-04T23:57:26.880Z,20.89
2018-05-04T23:59:53.034Z,20.90
